This is the latest recevied weather packets stored in our database for station/object I3RKE-10. If no packets are shown the sender has not sent any weather packets the latest 10 day(s).
| Time | Temp. | Humidity | Pressure | Rain* | Wind** | Luminosity | Snow |
|---|---|---|---|---|---|---|---|
| 1777487147 | 15.56° C | 68% | 1012.7 hPa | - | - | - | - |
| 1777486247 | 15.56° C | 71% | 1012.6 hPa | - | - | - | - |
| 1777485347 | 16.11° C | 68% | 1012.4 hPa | - | - | - | - |
| 1777484447 | 15.56° C | 69% | 1012.1 hPa | - | - | - | - |
| 1777483546 | 16.11° C | 66% | 1011.9 hPa | - | - | - | - |
| 1777482646 | 16.11° C | 65% | 1011.7 hPa | - | - | - | - |
| 1777481746 | 16.67° C | 64% | 1011.7 hPa | - | - | - | - |
| 1777480846 | 16.67° C | 63% | 1011.8 hPa | - | - | - | - |
| 1777479946 | 16.67° C | 62% | 1011.8 hPa | - | - | - | - |
| 1777479046 | 17.22° C | 61% | 1011.8 hPa | - | - | - | - |
| 1777478146 | 16.67° C | 62% | 1011.8 hPa | - | - | - | - |
| 1777477246 | 16.67° C | 63% | 1011.9 hPa | - | - | - | - |
| 1777476346 | 16.67° C | 65% | 1011.9 hPa | - | - | - | - |
| 1777475446 | 17.22° C | 65% | 1011.9 hPa | - | - | - | - |
| 1777474546 | 17.22° C | 66% | 1011.9 hPa | - | - | - | - |
| 1777473646 | 17.22° C | 67% | 1011.9 hPa | - | - | - | - |
| 1777472745 | 17.78° C | 67% | 1011.9 hPa | - | - | - | - |
| 1777471845 | 18.33° C | 64% | 1011.8 hPa | - | - | - | - |
| 1777470945 | 18.33° C | 62% | 1011.9 hPa | - | - | - | - |
| 1777470045 | 19.44° C | 59% | 1011.7 hPa | - | - | - | - |
| 1777469145 | 20° C | 57% | 1011.8 hPa | - | - | - | - |
| 1777468339 | 20.56° C | 54% | 1011.6 hPa | - | - | - | - |
| 1777468245 | 20.56° C | 54% | 1011.6 hPa | - | - | - | - |
| 1777467345 | 21.11° C | 53% | 1011.7 hPa | - | - | - | - |
| 1777466493 | 20° C | 54% | 1011.7 hPa | - | - | - | - |
* Rain since midnight (hover to see other rain measurements)
** Current wind speed in m/s (hover to see current wind gust speed)